sensor_id;sensor_type;location;lat;lon;timestamp;temperature;humidity
11229;DHT22;5671;47.936;8.716;2023-06-14T00:01:48;10.40;52.10
11229;DHT22;5671;47.936;8.716;2023-06-14T00:04:15;10.30;53.40
11229;DHT22;5671;47.936;8.716;2023-06-14T00:06:43;10.20;52.00
11229;DHT22;5671;47.936;8.716;2023-06-14T00:09:12;10.20;52.00
11229;DHT22;5671;47.936;8.716;2023-06-14T00:11:43;10.20;52.20
11229;DHT22;5671;47.936;8.716;2023-06-14T00:14:10;10.10;53.70
11229;DHT22;5671;47.936;8.716;2023-06-14T00:16:37;10.00;54.40
11229;DHT22;5671;47.936;8.716;2023-06-14T00:19:04;10.00;52.40
11229;DHT22;5671;47.936;8.716;2023-06-14T00:21:31;9.90;52.40
11229;DHT22;5671;47.936;8.716;2023-06-14T00:23:58;9.90;53.30
11229;DHT22;5671;47.936;8.716;2023-06-14T00:26:27;9.90;53.30
11229;DHT22;5671;47.936;8.716;2023-06-14T00:28:54;9.80;53.30
11229;DHT22;5671;47.936;8.716;2023-06-14T00:31:22;9.80;54.30
11229;DHT22;5671;47.936;8.716;2023-06-14T00:33:48;9.70;53.50
11229;DHT22;5671;47.936;8.716;2023-06-14T00:36:15;9.70;55.30
11229;DHT22;5671;47.936;8.716;2023-06-14T00:38:42;9.60;54.70
11229;DHT22;5671;47.936;8.716;2023-06-14T00:41:09;9.60;54.40
11229;DHT22;5671;47.936;8.716;2023-06-14T00:43:37;9.50;55.40
11229;DHT22;5671;47.936;8.716;2023-06-14T00:46:04;9.40;55.80
11229;DHT22;5671;47.936;8.716;2023-06-14T00:48:31;9.40;53.80
11229;DHT22;5671;47.936;8.716;2023-06-14T00:51:00;9.40;55.30
11229;DHT22;5671;47.936;8.716;2023-06-14T00:53:29;9.40;54.60
11229;DHT22;5671;47.936;8.716;2023-06-14T00:55:57;9.40;56.60
11229;DHT22;5671;47.936;8.716;2023-06-14T00:58:24;9.30;57.70
11229;DHT22;5671;47.936;8.716;2023-06-14T01:00:52;9.20;57.80
11229;DHT22;5671;47.936;8.716;2023-06-14T01:03:19;9.10;57.00
11229;DHT22;5671;47.936;8.716;2023-06-14T01:05:48;9.10;57.90
11229;DHT22;5671;47.936;8.716;2023-06-14T01:08:24;9.00;57.90
11229;DHT22;5671;47.936;8.716;2023-06-14T01:10:56;9.00;56.90
11229;DHT22;5671;47.936;8.716;2023-06-14T01:13:27;9.00;56.90
11229;DHT22;5671;47.936;8.716;2023-06-14T01:15:56;8.90;57.70
11229;DHT22;5671;47.936;8.716;2023-06-14T01:18:23;8.90;58.00
11229;DHT22;5671;47.936;8.716;2023-06-14T01:20:52;8.90;57.00
11229;DHT22;5671;47.936;8.716;2023-06-14T01:23:22;8.80;58.00
11229;DHT22;5671;47.936;8.716;2023-06-14T01:25:51;8.70;58.50
11229;DHT22;5671;47.936;8.716;2023-06-14T01:28:20;8.70;56.60
11229;DHT22;5671;47.936;8.716;2023-06-14T01:30:49;8.70;57.10
11229;DHT22;5671;47.936;8.716;2023-06-14T01:33:20;8.70;56.30
11229;DHT22;5671;47.936;8.716;2023-06-14T01:35:49;8.60;57.40
11229;DHT22;5671;47.936;8.716;2023-06-14T01:38:17;8.70;56.80
11229;DHT22;5671;47.936;8.716;2023-06-14T01:40:48;8.60;56.80
11229;DHT22;5671;47.936;8.716;2023-06-14T01:43:16;8.50;58.40
11229;DHT22;5671;47.936;8.716;2023-06-14T01:45:45;8.40;58.70
11229;DHT22;5671;47.936;8.716;2023-06-14T01:48:12;8.40;58.80
11229;DHT22;5671;47.936;8.716;2023-06-14T01:50:40;8.30;57.10
11229;DHT22;5671;47.936;8.716;2023-06-14T01:53:08;8.30;58.40
11229;DHT22;5671;47.936;8.716;2023-06-14T01:55:35;8.30;57.60
11229;DHT22;5671;47.936;8.716;2023-06-14T01:58:04;8.20;58.70
11229;DHT22;5671;47.936;8.716;2023-06-14T02:00:31;8.20;59.20
11229;DHT22;5671;47.936;8.716;2023-06-14T02:02:58;8.10;58.70
11229;DHT22;5671;47.936;8.716;2023-06-14T02:05:25;8.10;59.30
11229;DHT22;5671;47.936;8.716;2023-06-14T02:07:52;8.00;59.10
11229;DHT22;5671;47.936;8.716;2023-06-14T02:10:20;8.00;59.10
11229;DHT22;5671;47.936;8.716;2023-06-14T02:12:47;7.90;59.00
11229;DHT22;5671;47.936;8.716;2023-06-14T02:15:15;7.90;59.20
11229;DHT22;5671;47.936;8.716;2023-06-14T02:17:45;7.90;58.30
11229;DHT22;5671;47.936;8.716;2023-06-14T02:20:12;7.80;59.40
11229;DHT22;5671;47.936;8.716;2023-06-14T02:22:40;7.70;59.30
11229;DHT22;5671;47.936;8.716;2023-06-14T02:25:07;7.70;59.10
11229;DHT22;5671;47.936;8.716;2023-06-14T02:27:34;7.70;59.50
11229;DHT22;5671;47.936;8.716;2023-06-14T02:30:01;7.60;59.50
11229;DHT22;5671;47.936;8.716;2023-06-14T02:32:29;7.60;59.50
11229;DHT22;5671;47.936;8.716;2023-06-14T02:34:57;7.50;59.10
11229;DHT22;5671;47.936;8.716;2023-06-14T02:37:24;7.50;60.50
11229;DHT22;5671;47.936;8.716;2023-06-14T02:39:50;7.40;61.10
11229;DHT22;5671;47.936;8.716;2023-06-14T02:42:17;7.40;60.90
11229;DHT22;5671;47.936;8.716;2023-06-14T02:44:44;7.40;60.20
11229;DHT22;5671;47.936;8.716;2023-06-14T02:47:16;7.40;61.10
11229;DHT22;5671;47.936;8.716;2023-06-14T02:49:44;7.30;60.30
11229;DHT22;5671;47.936;8.716;2023-06-14T02:52:12;7.30;61.10
11229;DHT22;5671;47.936;8.716;2023-06-14T02:54:39;7.30;60.90
11229;DHT22;5671;47.936;8.716;2023-06-14T02:57:07;7.20;60.70
11229;DHT22;5671;47.936;8.716;2023-06-14T02:59:34;7.20;60.90
11229;DHT22;5671;47.936;8.716;2023-06-14T03:02:01;7.20;62.20
11229;DHT22;5671;47.936;8.716;2023-06-14T03:04:28;7.10;61.90
11229;DHT22;5671;47.936;8.716;2023-06-14T03:07:04;7.10;61.80
11229;DHT22;5671;47.936;8.716;2023-06-14T03:09:37;7.10;62.30
11229;DHT22;5671;47.936;8.716;2023-06-14T03:12:15;7.10;62.20
11229;DHT22;5671;47.936;8.716;2023-06-14T03:14:41;7.00;62.10
11229;DHT22;5671;47.936;8.716;2023-06-14T03:17:11;7.00;61.60
11229;DHT22;5671;47.936;8.716;2023-06-14T03:19:38;7.00;62.10
11229;DHT22;5671;47.936;8.716;2023-06-14T03:22:08;6.90;63.30
11229;DHT22;5671;47.936;8.716;2023-06-14T03:24:37;6.90;62.70
11229;DHT22;5671;47.936;8.716;2023-06-14T03:27:04;6.90;62.30
11229;DHT22;5671;47.936;8.716;2023-06-14T03:29:31;6.90;61.80
11229;DHT22;5671;47.936;8.716;2023-06-14T03:31:59;6.80;62.40
11229;DHT22;5671;47.936;8.716;2023-06-14T03:34:26;6.80;63.20
11229;DHT22;5671;47.936;8.716;2023-06-14T03:36:53;6.80;63.10
11229;DHT22;5671;47.936;8.716;2023-06-14T03:39:22;6.70;62.70
11229;DHT22;5671;47.936;8.716;2023-06-14T03:41:49;6.70;62.40
11229;DHT22;5671;47.936;8.716;2023-06-14T03:44:17;6.60;62.50
11229;DHT22;5671;47.936;8.716;2023-06-14T03:46:44;6.60;63.50
11229;DHT22;5671;47.936;8.716;2023-06-14T03:49:11;6.50;63.10
11229;DHT22;5671;47.936;8.716;2023-06-14T03:51:38;6.40;64.20
11229;DHT22;5671;47.936;8.716;2023-06-14T03:54:05;6.40;63.30
11229;DHT22;5671;47.936;8.716;2023-06-14T03:56:33;6.40;63.60
11229;DHT22;5671;47.936;8.716;2023-06-14T03:59:00;6.40;63.70
11229;DHT22;5671;47.936;8.716;2023-06-14T04:01:27;6.30;63.60
11229;DHT22;5671;47.936;8.716;2023-06-14T04:03:55;6.30;64.00
11229;DHT22;5671;47.936;8.716;2023-06-14T04:06:23;6.30;63.50
11229;DHT22;5671;47.936;8.716;2023-06-14T04:08:58;6.30;63.40
11229;DHT22;5671;47.936;8.716;2023-06-14T04:11:28;6.30;63.90
11229;DHT22;5671;47.936;8.716;2023-06-14T04:13:57;6.30;63.80
11229;DHT22;5671;47.936;8.716;2023-06-14T04:16:24;6.30;63.10
11229;DHT22;5671;47.936;8.716;2023-06-14T04:18:54;6.30;64.70
11229;DHT22;5671;47.936;8.716;2023-06-14T04:21:23;6.30;63.50
11229;DHT22;5671;47.936;8.716;2023-06-14T04:23:51;6.30;64.30
11229;DHT22;5671;47.936;8.716;2023-06-14T04:26:21;6.30;64.80
11229;DHT22;5671;47.936;8.716;2023-06-14T04:28:49;6.30;64.80
11229;DHT22;5671;47.936;8.716;2023-06-14T04:31:17;6.40;64.20
11229;DHT22;5671;47.936;8.716;2023-06-14T04:33:44;6.40;64.40
11229;DHT22;5671;47.936;8.716;2023-06-14T04:36:12;6.40;64.30
11229;DHT22;5671;47.936;8.716;2023-06-14T04:38:39;6.40;65.00
11229;DHT22;5671;47.936;8.716;2023-06-14T04:41:06;6.40;65.60
11229;DHT22;5671;47.936;8.716;2023-06-14T04:43:37;6.40;65.20
11229;DHT22;5671;47.936;8.716;2023-06-14T04:46:04;6.40;64.90
11229;DHT22;5671;47.936;8.716;2023-06-14T04:48:36;6.50;64.50
11229;DHT22;5671;47.936;8.716;2023-06-14T04:51:05;6.50;64.80
11229;DHT22;5671;47.936;8.716;2023-06-14T04:53:32;6.60;64.80
11229;DHT22;5671;47.936;8.716;2023-06-14T04:55:59;6.60;65.90
11229;DHT22;5671;47.936;8.716;2023-06-14T04:58:27;6.70;65.10
11229;DHT22;5671;47.936;8.716;2023-06-14T05:00:54;6.70;65.50
11229;DHT22;5671;47.936;8.716;2023-06-14T05:03:21;6.80;65.30
11229;DHT22;5671;47.936;8.716;2023-06-14T05:05:50;6.80;65.10
11229;DHT22;5671;47.936;8.716;2023-06-14T05:08:18;6.90;65.60
11229;DHT22;5671;47.936;8.716;2023-06-14T05:10:45;7.00;65.30
11229;DHT22;5671;47.936;8.716;2023-06-14T05:13:12;7.00;64.60
11229;DHT22;5671;47.936;8.716;2023-06-14T05:15:39;7.10;64.50
11229;DHT22;5671;47.936;8.716;2023-06-14T05:18:06;7.10;64.70
11229;DHT22;5671;47.936;8.716;2023-06-14T05:20:35;7.20;64.10
11229;DHT22;5671;47.936;8.716;2023-06-14T05:23:03;7.30;65.10
11229;DHT22;5671;47.936;8.716;2023-06-14T05:25:30;7.30;63.90
11229;DHT22;5671;47.936;8.716;2023-06-14T05:27:57;7.40;64.80
11229;DHT22;5671;47.936;8.716;2023-06-14T05:30:24;7.50;64.30
11229;DHT22;5671;47.936;8.716;2023-06-14T05:32:51;7.50;63.70
11229;DHT22;5671;47.936;8.716;2023-06-14T05:35:18;7.60;64.70
11229;DHT22;5671;47.936;8.716;2023-06-14T05:37:47;7.70;64.10
11229;DHT22;5671;47.936;8.716;2023-06-14T05:40:15;7.80;63.80
11229;DHT22;5671;47.936;8.716;2023-06-14T05:42:43;7.90;63.10
11229;DHT22;5671;47.936;8.716;2023-06-14T05:45:10;8.00;63.10
11229;DHT22;5671;47.936;8.716;2023-06-14T05:47:37;8.10;64.30
11229;DHT22;5671;47.936;8.716;2023-06-14T05:50:04;8.20;62.70
11229;DHT22;5671;47.936;8.716;2023-06-14T05:52:31;8.40;63.60
11229;DHT22;5671;47.936;8.716;2023-06-14T05:54:59;8.50;63.50
11229;DHT22;5671;47.936;8.716;2023-06-14T05:57:27;8.60;62.90
11229;DHT22;5671;47.936;8.716;2023-06-14T05:59:54;8.70;61.50
11229;DHT22;5671;47.936;8.716;2023-06-14T06:02:21;8.90;61.40
11229;DHT22;5671;47.936;8.716;2023-06-14T06:04:48;9.00;62.10
11229;DHT22;5671;47.936;8.716;2023-06-14T06:07:14;9.10;61.60
11229;DHT22;5671;47.936;8.716;2023-06-14T06:09:41;9.20;61.20
11229;DHT22;5671;47.936;8.716;2023-06-14T06:12:09;9.30;61.80
11229;DHT22;5671;47.936;8.716;2023-06-14T06:14:37;9.50;62.40
11229;DHT22;5671;47.936;8.716;2023-06-14T06:17:04;9.60;63.90
11229;DHT22;5671;47.936;8.716;2023-06-14T06:19:32;9.80;63.50
11229;DHT22;5671;47.936;8.716;2023-06-14T06:21:58;10.00;62.80
11229;DHT22;5671;47.936;8.716;2023-06-14T06:24:25;10.10;63.20
11229;DHT22;5671;47.936;8.716;2023-06-14T06:26:52;10.30;62.90
11229;DHT22;5671;47.936;8.716;2023-06-14T06:29:19;10.40;62.30
11229;DHT22;5671;47.936;8.716;2023-06-14T06:31:47;10.60;61.20
11229;DHT22;5671;47.936;8.716;2023-06-14T06:34:14;10.80;61.00
11229;DHT22;5671;47.936;8.716;2023-06-14T06:36:41;10.90;58.80
11229;DHT22;5671;47.936;8.716;2023-06-14T06:39:08;11.10;60.40
11229;DHT22;5671;47.936;8.716;2023-06-14T06:41:36;11.30;60.30
11229;DHT22;5671;47.936;8.716;2023-06-14T06:44:05;11.40;59.60
11229;DHT22;5671;47.936;8.716;2023-06-14T06:46:32;11.60;60.00
11229;DHT22;5671;47.936;8.716;2023-06-14T06:49:00;11.80;58.20
11229;DHT22;5671;47.936;8.716;2023-06-14T06:51:27;12.00;60.10
11229;DHT22;5671;47.936;8.716;2023-06-14T06:53:54;12.20;58.40
11229;DHT22;5671;47.936;8.716;2023-06-14T06:56:21;12.30;58.10
11229;DHT22;5671;47.936;8.716;2023-06-14T06:58:49;12.70;57.80
11229;DHT22;5671;47.936;8.716;2023-06-14T07:01:16;12.80;56.70
11229;DHT22;5671;47.936;8.716;2023-06-14T07:03:44;13.00;56.60
11229;DHT22;5671;47.936;8.716;2023-06-14T07:06:18;13.10;56.50
11229;DHT22;5671;47.936;8.716;2023-06-14T07:08:46;13.40;56.80
11229;DHT22;5671;47.936;8.716;2023-06-14T07:11:13;13.60;54.90
11229;DHT22;5671;47.936;8.716;2023-06-14T07:13:40;13.80;55.00
11229;DHT22;5671;47.936;8.716;2023-06-14T07:16:07;14.00;53.20
11229;DHT22;5671;47.936;8.716;2023-06-14T07:18:34;14.30;53.40
11229;DHT22;5671;47.936;8.716;2023-06-14T07:21:03;14.60;48.20
11229;DHT22;5671;47.936;8.716;2023-06-14T07:23:31;14.90;46.50
11229;DHT22;5671;47.936;8.716;2023-06-14T07:25:58;15.30;45.90
11229;DHT22;5671;47.936;8.716;2023-06-14T07:28:24;15.60;45.00
11229;DHT22;5671;47.936;8.716;2023-06-14T07:30:51;15.80;44.20
11229;DHT22;5671;47.936;8.716;2023-06-14T07:33:18;16.10;44.40
11229;DHT22;5671;47.936;8.716;2023-06-14T07:35:45;16.30;43.50
11229;DHT22;5671;47.936;8.716;2023-06-14T07:38:13;16.60;43.70
11229;DHT22;5671;47.936;8.716;2023-06-14T07:40:44;16.80;42.80
11229;DHT22;5671;47.936;8.716;2023-06-14T07:43:11;17.00;42.90
11229;DHT22;5671;47.936;8.716;2023-06-14T07:45:38;17.20;41.90
11229;DHT22;5671;47.936;8.716;2023-06-14T07:48:05;17.30;41.10
11229;DHT22;5671;47.936;8.716;2023-06-14T07:51:19;17.40;41.40
11229;DHT22;5671;47.936;8.716;2023-06-14T07:54:26;17.60;41.80
11229;DHT22;5671;47.936;8.716;2023-06-14T08:00:19;18.00;39.40
11229;DHT22;5671;47.936;8.716;2023-06-14T08:02:59;18.10;38.60
11229;DHT22;5671;47.936;8.716;2023-06-14T08:05:33;18.20;37.60
11229;DHT22;5671;47.936;8.716;2023-06-14T08:08:00;18.40;38.40
11229;DHT22;5671;47.936;8.716;2023-06-14T08:10:27;18.50;38.10
11229;DHT22;5671;47.936;8.716;2023-06-14T08:13:05;18.60;39.00
11229;DHT22;5671;47.936;8.716;2023-06-14T08:16:28;18.70;38.10
11229;DHT22;5671;47.936;8.716;2023-06-14T08:18:56;18.80;38.30
11229;DHT22;5671;47.936;8.716;2023-06-14T08:21:54;18.90;38.30
11229;DHT22;5671;47.936;8.716;2023-06-14T08:24:57;19.00;38.00
11229;DHT22;5671;47.936;8.716;2023-06-14T08:27:49;19.10;37.60
11229;DHT22;5671;47.936;8.716;2023-06-14T08:30:48;19.20;37.10
11229;DHT22;5671;47.936;8.716;2023-06-14T08:33:17;19.30;37.60
11229;DHT22;5671;47.936;8.716;2023-06-14T08:35:56;19.30;36.60
11229;DHT22;5671;47.936;8.716;2023-06-14T08:38:23;19.50;37.60
11229;DHT22;5671;47.936;8.716;2023-06-14T08:41:03;19.60;37.20
11229;DHT22;5671;47.936;8.716;2023-06-14T08:43:38;19.60;35.70
11229;DHT22;5671;47.936;8.716;2023-06-14T08:49:45;19.70;35.30
11229;DHT22;5671;47.936;8.716;2023-06-14T08:52:16;19.80;35.70
11229;DHT22;5671;47.936;8.716;2023-06-14T08:55:15;19.90;35.60
11229;DHT22;5671;47.936;8.716;2023-06-14T08:58:05;20.00;35.60
11229;DHT22;5671;47.936;8.716;2023-06-14T09:00:47;20.30;35.20
11229;DHT22;5671;47.936;8.716;2023-06-14T09:03:54;20.40;35.90
11229;DHT22;5671;47.936;8.716;2023-06-14T09:06:26;20.30;35.80
11229;DHT22;5671;47.936;8.716;2023-06-14T09:09:16;20.30;34.40
11229;DHT22;5671;47.936;8.716;2023-06-14T09:11:58;20.30;35.00
11229;DHT22;5671;47.936;8.716;2023-06-14T09:14:25;20.40;35.30
11229;DHT22;5671;47.936;8.716;2023-06-14T09:16:58;20.50;34.80
11229;DHT22;5671;47.936;8.716;2023-06-14T09:23:13;20.60;35.10
11229;DHT22;5671;47.936;8.716;2023-06-14T09:25:47;20.70;34.80
11229;DHT22;5671;47.936;8.716;2023-06-14T09:31:37;20.90;34.10
11229;DHT22;5671;47.936;8.716;2023-06-14T09:34:05;20.90;34.00
11229;DHT22;5671;47.936;8.716;2023-06-14T09:36:32;21.00;34.10
11229;DHT22;5671;47.936;8.716;2023-06-14T09:42:48;21.20;34.20
11229;DHT22;5671;47.936;8.716;2023-06-14T09:46:08;21.30;34.80
11229;DHT22;5671;47.936;8.716;2023-06-14T09:48:58;21.30;33.70
11229;DHT22;5671;47.936;8.716;2023-06-14T09:51:36;21.50;33.40
11229;DHT22;5671;47.936;8.716;2023-06-14T09:54:20;21.60;32.80
11229;DHT22;5671;47.936;8.716;2023-06-14T09:56:57;21.60;32.20
11229;DHT22;5671;47.936;8.716;2023-06-14T09:59:52;21.70;33.60
11229;DHT22;5671;47.936;8.716;2023-06-14T10:02:46;21.80;33.90
11229;DHT22;5671;47.936;8.716;2023-06-14T10:05:17;21.90;33.10
11229;DHT22;5671;47.936;8.716;2023-06-14T10:08:05;22.00;33.40
11229;DHT22;5671;47.936;8.716;2023-06-14T10:10:44;22.00;33.10
11229;DHT22;5671;47.936;8.716;2023-06-14T10:13:11;22.10;32.00
11229;DHT22;5671;47.936;8.716;2023-06-14T10:15:44;22.10;31.90
11229;DHT22;5671;47.936;8.716;2023-06-14T10:18:18;22.10;32.20
11229;DHT22;5671;47.936;8.716;2023-06-14T10:23:52;22.30;32.60
11229;DHT22;5671;47.936;8.716;2023-06-14T10:26:27;22.30;31.00
11229;DHT22;5671;47.936;8.716;2023-06-14T10:29:00;22.30;32.10
11229;DHT22;5671;47.936;8.716;2023-06-14T10:31:45;22.40;32.20
11229;DHT22;5671;47.936;8.716;2023-06-14T10:34:12;22.40;32.50
11229;DHT22;5671;47.936;8.716;2023-06-14T10:39:50;22.50;31.80
11229;DHT22;5671;47.936;8.716;2023-06-14T10:42:19;22.60;31.70
11229;DHT22;5671;47.936;8.716;2023-06-14T10:44:52;22.60;32.00
11229;DHT22;5671;47.936;8.716;2023-06-14T10:47:27;22.60;31.50
11229;DHT22;5671;47.936;8.716;2023-06-14T10:49:55;22.70;31.60
11229;DHT22;5671;47.936;8.716;2023-06-14T10:52:27;22.70;31.40
11229;DHT22;5671;47.936;8.716;2023-06-14T10:55:30;22.80;32.60
11229;DHT22;5671;47.936;8.716;2023-06-14T10:58:01;22.90;31.50
11229;DHT22;5671;47.936;8.716;2023-06-14T11:00:29;23.00;31.80
11229;DHT22;5671;47.936;8.716;2023-06-14T11:06:13;23.30;32.60
11229;DHT22;5671;47.936;8.716;2023-06-14T11:09:11;23.40;33.00
11229;DHT22;5671;47.936;8.716;2023-06-14T11:11:46;23.50;31.50
11229;DHT22;5671;47.936;8.716;2023-06-14T11:14:13;23.40;31.50
11229;DHT22;5671;47.936;8.716;2023-06-14T11:16:40;23.40;32.20
11229;DHT22;5671;47.936;8.716;2023-06-14T11:19:15;23.20;31.80
11229;DHT22;5671;47.936;8.716;2023-06-14T11:21:50;23.20;33.50
11229;DHT22;5671;47.936;8.716;2023-06-14T11:24:27;23.20;33.90
11229;DHT22;5671;47.936;8.716;2023-06-14T11:26:55;23.30;33.30
11229;DHT22;5671;47.936;8.716;2023-06-14T11:29:32;23.30;34.40
11229;DHT22;5671;47.936;8.716;2023-06-14T11:31:58;23.30;33.40
11229;DHT22;5671;47.936;8.716;2023-06-14T11:34:25;23.30;33.60
11229;DHT22;5671;47.936;8.716;2023-06-14T11:37:03;23.40;34.40
11229;DHT22;5671;47.936;8.716;2023-06-14T11:39:30;23.50;33.40
11229;DHT22;5671;47.936;8.716;2023-06-14T11:41:57;23.30;34.10
11229;DHT22;5671;47.936;8.716;2023-06-14T11:44:28;23.30;35.40
11229;DHT22;5671;47.936;8.716;2023-06-14T11:46:58;23.30;35.80
11229;DHT22;5671;47.936;8.716;2023-06-14T11:49:32;23.50;33.90
11229;DHT22;5671;47.936;8.716;2023-06-14T11:52:03;23.70;34.70
11229;DHT22;5671;47.936;8.716;2023-06-14T11:54:32;23.90;33.90
11229;DHT22;5671;47.936;8.716;2023-06-14T11:56:59;24.20;35.10
11229;DHT22;5671;47.936;8.716;2023-06-14T11:59:26;24.30;32.80
11229;DHT22;5671;47.936;8.716;2023-06-14T12:01:54;24.20;33.50
11229;DHT22;5671;47.936;8.716;2023-06-14T12:04:30;24.20;34.50
11229;DHT22;5671;47.936;8.716;2023-06-14T12:06:57;24.30;35.80
11229;DHT22;5671;47.936;8.716;2023-06-14T12:09:28;24.60;32.10
11229;DHT22;5671;47.936;8.716;2023-06-14T12:12:07;24.80;34.30
11229;DHT22;5671;47.936;8.716;2023-06-14T12:14:34;24.90;32.20
11229;DHT22;5671;47.936;8.716;2023-06-14T12:17:04;25.10;32.10
11229;DHT22;5671;47.936;8.716;2023-06-14T12:19:32;25.20;32.40
11229;DHT22;5671;47.936;8.716;2023-06-14T12:22:00;25.20;32.40
11229;DHT22;5671;47.936;8.716;2023-06-14T12:24:37;25.00;32.20
11229;DHT22;5671;47.936;8.716;2023-06-14T12:27:08;24.80;31.30
11229;DHT22;5671;47.936;8.716;2023-06-14T12:29:41;24.60;31.60
11229;DHT22;5671;47.936;8.716;2023-06-14T12:32:09;24.50;31.90
11229;DHT22;5671;47.936;8.716;2023-06-14T12:34:36;24.30;32.90
11229;DHT22;5671;47.936;8.716;2023-06-14T12:37:10;24.20;32.70
11229;DHT22;5671;47.936;8.716;2023-06-14T12:39:53;24.10;33.30
11229;DHT22;5671;47.936;8.716;2023-06-14T12:42:19;24.00;33.40
11229;DHT22;5671;47.936;8.716;2023-06-14T12:44:46;23.90;34.20
11229;DHT22;5671;47.936;8.716;2023-06-14T12:47:15;23.80;32.40
11229;DHT22;5671;47.936;8.716;2023-06-14T12:49:42;23.70;33.80
11229;DHT22;5671;47.936;8.716;2023-06-14T12:52:23;23.70;33.50
11229;DHT22;5671;47.936;8.716;2023-06-14T12:55:00;23.90;34.10
11229;DHT22;5671;47.936;8.716;2023-06-14T12:57:27;24.10;33.90
11229;DHT22;5671;47.936;8.716;2023-06-14T12:59:54;24.40;34.50
11229;DHT22;5671;47.936;8.716;2023-06-14T13:02:21;24.50;35.00
11229;DHT22;5671;47.936;8.716;2023-06-14T13:04:50;24.40;33.80
11229;DHT22;5671;47.936;8.716;2023-06-14T13:07:18;24.20;32.60
11229;DHT22;5671;47.936;8.716;2023-06-14T13:10:01;24.20;33.00
11229;DHT22;5671;47.936;8.716;2023-06-14T13:12:30;24.10;33.40
11229;DHT22;5671;47.936;8.716;2023-06-14T13:14:57;24.00;33.50
11229;DHT22;5671;47.936;8.716;2023-06-14T13:17:24;23.80;34.10
11229;DHT22;5671;47.936;8.716;2023-06-14T13:19:58;23.80;33.90
11229;DHT22;5671;47.936;8.716;2023-06-14T13:22:25;23.90;33.90
11229;DHT22;5671;47.936;8.716;2023-06-14T13:25:11;23.90;33.60
11229;DHT22;5671;47.936;8.716;2023-06-14T13:27:38;24.00;34.80
11229;DHT22;5671;47.936;8.716;2023-06-14T13:30:06;24.20;32.40
11229;DHT22;5671;47.936;8.716;2023-06-14T13:32:34;24.30;34.30
11229;DHT22;5671;47.936;8.716;2023-06-14T13:35:07;24.50;32.30
11229;DHT22;5671;47.936;8.716;2023-06-14T13:37:34;24.70;31.70
11229;DHT22;5671;47.936;8.716;2023-06-14T13:40:13;24.80;31.80
11229;DHT22;5671;47.936;8.716;2023-06-14T13:42:41;25.00;32.40
11229;DHT22;5671;47.936;8.716;2023-06-14T13:45:11;25.10;32.20
11229;DHT22;5671;47.936;8.716;2023-06-14T13:47:44;25.10;31.30
11229;DHT22;5671;47.936;8.716;2023-06-14T13:50:16;24.90;32.30
11229;DHT22;5671;47.936;8.716;2023-06-14T13:52:45;24.80;32.70
11229;DHT22;5671;47.936;8.716;2023-06-14T13:55:14;24.70;33.60
11229;DHT22;5671;47.936;8.716;2023-06-14T13:57:48;24.60;33.60
11229;DHT22;5671;47.936;8.716;2023-06-14T14:00:17;24.50;32.90
11229;DHT22;5671;47.936;8.716;2023-06-14T14:02:44;24.50;32.80
11229;DHT22;5671;47.936;8.716;2023-06-14T14:05:12;24.40;32.60
11229;DHT22;5671;47.936;8.716;2023-06-14T14:07:41;24.30;33.70
11229;DHT22;5671;47.936;8.716;2023-06-14T14:10:09;24.20;33.00
11229;DHT22;5671;47.936;8.716;2023-06-14T14:12:42;24.10;33.80
11229;DHT22;5671;47.936;8.716;2023-06-14T14:15:21;24.00;33.30
11229;DHT22;5671;47.936;8.716;2023-06-14T14:17:50;23.90;33.90
11229;DHT22;5671;47.936;8.716;2023-06-14T14:20:19;23.80;34.90
11229;DHT22;5671;47.936;8.716;2023-06-14T14:22:46;23.80;34.20
11229;DHT22;5671;47.936;8.716;2023-06-14T14:25:13;23.70;33.70
11229;DHT22;5671;47.936;8.716;2023-06-14T14:27:40;23.70;34.40
11229;DHT22;5671;47.936;8.716;2023-06-14T14:30:12;23.70;34.80
11229;DHT22;5671;47.936;8.716;2023-06-14T14:32:39;23.70;35.40
11229;DHT22;5671;47.936;8.716;2023-06-14T14:35:09;23.80;33.80
11229;DHT22;5671;47.936;8.716;2023-06-14T14:37:37;23.80;32.50
11229;DHT22;5671;47.936;8.716;2023-06-14T14:40:05;24.00;33.20
11229;DHT22;5671;47.936;8.716;2023-06-14T14:42:32;24.00;33.00
11229;DHT22;5671;47.936;8.716;2023-06-14T14:45:05;24.20;33.80
11229;DHT22;5671;47.936;8.716;2023-06-14T14:47:34;24.40;35.20
11229;DHT22;5671;47.936;8.716;2023-06-14T14:50:04;24.60;33.30
11229;DHT22;5671;47.936;8.716;2023-06-14T14:52:34;24.40;32.90
11229;DHT22;5671;47.936;8.716;2023-06-14T14:55:01;24.30;33.00
11229;DHT22;5671;47.936;8.716;2023-06-14T14:57:27;24.30;32.90
11229;DHT22;5671;47.936;8.716;2023-06-14T14:59:55;24.10;33.00
11229;DHT22;5671;47.936;8.716;2023-06-14T15:02:22;24.10;32.80
11229;DHT22;5671;47.936;8.716;2023-06-14T15:04:51;24.10;33.30
11229;DHT22;5671;47.936;8.716;2023-06-14T15:07:17;23.90;32.40
11229;DHT22;5671;47.936;8.716;2023-06-14T15:09:44;23.90;32.60
11229;DHT22;5671;47.936;8.716;2023-06-14T15:12:15;23.70;32.80
11229;DHT22;5671;47.936;8.716;2023-06-14T15:14:46;23.60;32.80
11229;DHT22;5671;47.936;8.716;2023-06-14T15:17:16;23.50;32.80
11229;DHT22;5671;47.936;8.716;2023-06-14T15:19:43;23.50;33.10
11229;DHT22;5671;47.936;8.716;2023-06-14T15:22:12;23.50;32.80
11229;DHT22;5671;47.936;8.716;2023-06-14T15:28:05;23.30;33.80
11229;DHT22;5671;47.936;8.716;2023-06-14T15:31:16;23.30;33.60
11229;DHT22;5671;47.936;8.716;2023-06-14T15:33:53;23.30;33.60
11229;DHT22;5671;47.936;8.716;2023-06-14T15:36:20;23.20;32.80
11229;DHT22;5671;47.936;8.716;2023-06-14T15:45:31;23.00;33.90
11229;DHT22;5671;47.936;8.716;2023-06-14T15:48:07;22.90;33.90
11229;DHT22;5671;47.936;8.716;2023-06-14T15:50:54;22.90;34.50
11229;DHT22;5671;47.936;8.716;2023-06-14T15:53:40;23.00;33.50
11229;DHT22;5671;47.936;8.716;2023-06-14T16:03:04;23.10;35.70
11229;DHT22;5671;47.936;8.716;2023-06-14T16:06:18;23.10;33.90
11229;DHT22;5671;47.936;8.716;2023-06-14T16:12:58;23.10;34.10
11229;DHT22;5671;47.936;8.716;2023-06-14T16:32:27;23.70;34.30
11229;DHT22;5671;47.936;8.716;2023-06-14T16:34:54;23.80;34.30
11229;DHT22;5671;47.936;8.716;2023-06-14T16:37:48;23.80;32.70
11229;DHT22;5671;47.936;8.716;2023-06-14T16:40:18;23.70;34.20
11229;DHT22;5671;47.936;8.716;2023-06-14T16:42:48;23.70;33.30
11229;DHT22;5671;47.936;8.716;2023-06-14T16:45:28;23.70;33.60
11229;DHT22;5671;47.936;8.716;2023-06-14T16:48:02;23.70;33.10
11229;DHT22;5671;47.936;8.716;2023-06-14T16:53:39;23.70;34.80
11229;DHT22;5671;47.936;8.716;2023-06-14T16:56:12;23.70;33.60
11229;DHT22;5671;47.936;8.716;2023-06-14T16:59:19;23.60;34.30
11229;DHT22;5671;47.936;8.716;2023-06-14T17:01:50;23.60;33.60
11229;DHT22;5671;47.936;8.716;2023-06-14T17:04:19;23.60;33.70
11229;DHT22;5671;47.936;8.716;2023-06-14T17:06:50;23.50;34.30
11229;DHT22;5671;47.936;8.716;2023-06-14T17:09:16;23.50;34.60
11229;DHT22;5671;47.936;8.716;2023-06-14T17:11:43;23.50;35.30
11229;DHT22;5671;47.936;8.716;2023-06-14T17:14:10;23.50;34.80
11229;DHT22;5671;47.936;8.716;2023-06-14T17:16:38;23.40;34.40
11229;DHT22;5671;47.936;8.716;2023-06-14T17:19:04;23.40;34.60
11229;DHT22;5671;47.936;8.716;2023-06-14T17:21:33;23.30;33.80
11229;DHT22;5671;47.936;8.716;2023-06-14T17:24:00;23.20;33.40
11229;DHT22;5671;47.936;8.716;2023-06-14T17:26:40;23.10;33.70